Time,TemperatureF,DewpointF,PressureIn,WindDirection,WindDirectionDegrees,WindSpeedMPH,WindSpeedGustMPH,Humidity,HourlyPrecipIn,Conditions,Clouds,dailyrainin,SoftwareType,DateUTC
2013-06-04 00:00:00,76.8,75.3,29.81,SSE,157,0.0,1.0,95,0.00,,,-99.99,WeatherLink 5.6,2013-06-04 05:00:00,
2013-06-04 00:30:00,77.2,75.7,29.80,SE,135,0.0,4.0,95,0.00,,,-99.99,WeatherLink 5.6,2013-06-04 05:30:00,
2013-06-04 01:00:00,76.7,75.2,29.80,North,-999,0.0,0.0,95,0.00,,,-99.99,WeatherLink 5.6,2013-06-04 06:00:00,
2013-06-04 01:30:00,76.0,74.8,29.80,North,-999,0.0,0.0,96,0.00,,,-99.99,WeatherLink 5.6,2013-06-04 06:30:00,
2013-06-04 02:00:00,75.6,74.4,29.80,North,-999,0.0,0.0,96,0.00,,,-99.99,WeatherLink 5.6,2013-06-04 07:00:00,
2013-06-04 02:30:00,75.3,74.1,29.79,SE,135,0.0,1.0,96,0.00,,,-99.99,WeatherLink 5.6,2013-06-04 07:30:00,
2013-06-04 03:00:00,74.9,73.7,29.79,North,-999,0.0,0.0,96,0.00,,,-99.99,WeatherLink 5.6,2013-06-04 08:00:00,
2013-06-04 03:30:00,74.6,73.4,29.79,North,-999,0.0,0.0,96,0.00,,,-99.99,WeatherLink 5.6,2013-06-04 08:30:00,
2013-06-04 04:00:00,74.4,73.2,29.80,North,-999,0.0,0.0,96,0.00,,,-99.99,WeatherLink 5.6,2013-06-04 09:00:00,
2013-06-04 04:30:00,74.2,73.0,29.80,North,-999,0.0,0.0,96,0.00,,,-99.99,WeatherLink 5.6,2013-06-04 09:30:00,
2013-06-04 05:00:00,73.9,73.0,29.81,SE,135,0.0,1.0,97,0.00,,,-99.99,WeatherLink 5.6,2013-06-04 10:00:00,
2013-06-04 05:30:00,74.0,73.1,29.81,North,-999,0.0,0.0,97,0.00,,,-99.99,WeatherLink 5.6,2013-06-04 10:30:00,
2013-06-04 06:00:00,74.2,73.3,29.82,East,90,0.0,1.0,97,0.00,,,-99.99,WeatherLink 5.6,2013-06-04 11:00:00,
2013-06-04 06:30:00,74.4,73.5,29.83,East,90,0.0,3.0,97,0.00,,,-99.99,WeatherLink 5.6,2013-06-04 11:30:00,
2013-06-04 07:00:00,75.4,74.5,29.83,ENE,67,0.0,4.0,97,0.00,,,-99.99,WeatherLink 5.6,2013-06-04 12:00:00,
2013-06-04 07:30:00,77.7,76.5,29.83,ENE,67,0.0,4.0,96,0.00,,,-99.99,WeatherLink 5.6,2013-06-04 12:30:00,
2013-06-04 08:00:00,79.9,76.7,29.83,East,90,0.0,4.0,90,0.00,,,-99.99,WeatherLink 5.6,2013-06-04 13:00:00,
2013-06-04 08:30:00,82.2,74.7,29.84,ENE,67,0.0,5.0,78,0.00,,,-99.99,WeatherLink 5.6,2013-06-04 13:30:00,
2013-06-04 09:00:00,84.5,74.5,29.84,ESE,112,1.0,6.0,72,0.00,,,-99.99,WeatherLink 5.6,2013-06-04 14:00:00,
2013-06-04 09:30:00,86.3,73.6,29.83,NE,45,1.0,6.0,66,0.00,,,-99.99,WeatherLink 5.6,2013-06-04 14:30:00,
2013-06-04 10:00:00,85.3,73.5,29.84,ENE,67,3.0,10.0,68,0.00,,,-99.99,WeatherLink 5.6,2013-06-04 15:00:00,
2013-06-04 10:30:00,85.5,72.8,29.84,SE,135,3.0,12.0,66,0.00,,,-99.99,WeatherLink 5.6,2013-06-04 15:30:00,
2013-06-04 11:00:00,88.0,73.3,29.84,SE,135,3.0,12.0,62,0.00,,,-99.99,WeatherLink 5.6,2013-06-04 16:00:00,
2013-06-04 11:30:00,88.2,70.0,29.84,SE,135,4.0,15.0,55,0.00,,,-99.99,WeatherLink 5.6,2013-06-04 16:30:00,
2013-06-04 12:00:00,88.4,71.7,29.84,SE,135,5.0,13.0,58,0.00,,,-99.99,WeatherLink 5.6,2013-06-04 17:00:00,
2013-06-04 12:30:00,88.6,73.9,29.84,SE,135,4.0,14.0,62,0.00,,,-99.99,WeatherLink 5.6,2013-06-04 17:30:00,
2013-06-04 13:00:00,88.6,73.4,29.84,SE,135,5.0,17.0,61,0.00,,,-99.99,WeatherLink 5.6,2013-06-04 18:00:00,
2013-06-04 13:30:00,88.8,73.1,29.83,SE,135,4.0,16.0,60,0.00,,,-99.99,WeatherLink 5.6,2013-06-04 18:30:00,
2013-06-04 14:00:00,89.0,73.8,29.83,SE,135,5.0,16.0,61,0.00,,,-99.99,WeatherLink 5.6,2013-06-04 19:00:00,
2013-06-04 14:30:00,88.0,73.8,29.82,SE,135,5.0,15.0,63,0.00,,,-99.99,WeatherLink 5.6,2013-06-04 19:30:00,
2013-06-04 15:00:00,88.8,74.1,29.81,SE,135,3.0,13.0,62,0.00,,,-99.99,WeatherLink 5.6,2013-06-04 20:00:00,
2013-06-04 15:30:00,88.6,74.9,29.80,SE,135,4.0,13.0,64,0.00,,,-99.99,WeatherLink 5.6,2013-06-04 20:30:00,
2013-06-04 16:00:00,86.7,73.1,29.80,SE,135,5.0,15.0,64,0.00,,,-99.99,WeatherLink 5.6,2013-06-04 21:00:00,
2013-06-04 16:30:00,85.7,73.5,29.80,SE,135,6.0,15.0,67,0.00,,,-99.99,WeatherLink 5.6,2013-06-04 21:30:00,
2013-06-04 17:00:00,85.3,73.1,29.80,SE,135,7.0,16.0,67,0.00,,,-99.99,WeatherLink 5.6,2013-06-04 22:00:00,
2013-06-04 17:30:00,85.9,73.7,29.80,SE,135,4.0,15.0,67,0.00,,,-99.99,WeatherLink 5.6,2013-06-04 22:30:00,
2013-06-04 18:00:00,85.1,72.5,29.80,SSE,157,4.0,13.0,66,0.00,,,-99.99,WeatherLink 5.6,2013-06-04 23:00:00,
2013-06-04 18:30:00,83.8,73.8,29.79,SE,135,6.0,16.0,72,0.00,,,-99.99,WeatherLink 5.6,2013-06-04 23:30:00,
2013-06-04 19:00:00,83.0,73.9,29.80,SE,135,4.0,15.0,74,0.00,,,-99.99,WeatherLink 5.6,2013-06-05 00:00:00,
2013-06-04 19:30:00,82.0,74.5,29.81,SE,135,3.0,12.0,78,0.00,,,-99.99,WeatherLink 5.6,2013-06-05 00:30:00,
2013-06-04 20:00:00,80.9,73.8,29.80,SE,135,4.0,12.0,79,0.00,,,-99.99,WeatherLink 5.6,2013-06-05 01:00:00,
2013-06-04 20:30:00,80.7,74.0,29.80,SE,135,3.0,14.0,80,0.00,,,-99.99,WeatherLink 5.6,2013-06-05 01:30:00,
2013-06-04 21:00:00,80.3,74.3,29.81,SE,135,2.0,9.0,82,0.00,,,-99.99,WeatherLink 5.6,2013-06-05 02:00:00,
2013-06-04 21:30:00,80.1,74.5,29.83,SE,135,1.0,11.0,83,0.00,,,-99.99,WeatherLink 5.6,2013-06-05 02:30:00,
2013-06-04 22:00:00,80.1,74.5,29.84,SE,135,1.0,9.0,83,0.00,,,-99.99,WeatherLink 5.6,2013-06-05 03:00:00,
2013-06-04 22:30:00,80.1,74.1,29.84,SE,135,3.0,13.0,82,0.00,,,-99.99,WeatherLink 5.6,2013-06-05 03:30:00,
2013-06-04 23:00:00,79.9,73.9,29.84,SE,135,2.0,8.0,82,0.00,,,-99.99,WeatherLink 5.6,2013-06-05 04:00:00,
2013-06-04 23:30:00,79.8,74.2,29.84,SE,135,2.0,9.0,83,0.00,,,-99.99,WeatherLink 5.6,2013-06-05 04:30:00,